Time;durP1;ratioP1;P1;durP2;ratioP2;P2;SDS_P1;SDS_P2;PMS_P1;PMS_P2;Temp;Humidity;BMP_temperature;BMP_pressure;BME280_temperature;BME280_humidity;BME280_pressure;Samples;Min_cycle;Max_cycle;Signal;HPM_P1;HPM_P2
2023/11/30 00:01:08;;;;;;;9.17;5.20;;;;;;;-1.01;100.00;101084.72;4979049;28;20181;-71
2023/11/30 00:03:33;;;;;;;8.10;5.37;;;;;;;-0.91;100.00;101094.41;4982490;28;20189;-71
2023/11/30 00:05:59;;;;;;;8.53;5.90;;;;;;;-0.73;100.00;101115.00;4981874;28;20498;-71
2023/11/30 00:08:24;;;;;;;11.40;6.03;;;;;;;-0.08;100.00;101214.44;4984258;28;20712;-71
2023/11/30 00:10:50;;;;;;;8.50;5.77;;;;;;;-0.34;100.00;101169.03;4980767;28;20185;-71
2023/11/30 00:13:15;;;;;;;8.77;6.10;;;;;;;-0.03;100.00;101235.16;4977978;28;20208;-71
2023/11/30 00:15:41;;;;;;;8.10;6.27;;;;;;;-0.31;100.00;101186.41;4982080;28;20186;-71
2023/11/30 00:18:07;;;;;;;7.73;5.77;;;;;;;-0.52;100.00;101141.47;4982361;28;20289;-71
2023/11/30 00:20:33;;;;;;;8.63;6.43;;;;;;;-0.61;100.00;101126.38;4982485;28;20236;-71
2023/11/30 00:22:58;;;;;;;9.40;6.37;;;;;;;-0.50;100.00;101139.56;4980698;28;20436;-71
2023/11/30 00:25:23;;;;;;;9.53;6.10;;;;;;;-0.43;100.00;101134.63;4979985;28;20236;-71
2023/11/30 00:27:49;;;;;;;7.93;6.20;;;;;;;-0.18;100.00;101187.13;4977463;28;20739;-71
2023/11/30 00:30:15;;;;;;;8.30;6.37;;;;;;;-0.17;100.00;101217.81;4980616;28;20190;-71
2023/11/30 00:32:40;;;;;;;8.87;6.13;;;;;;;-0.22;100.00;101213.84;4986596;28;20205;-71
2023/11/30 00:35:06;;;;;;;7.90;6.23;;;;;;;-0.70;100.00;101146.38;4978043;28;20545;-72
2023/11/30 00:37:31;;;;;;;8.10;6.17;;;;;;;-0.14;100.00;101233.41;4983619;28;20364;-71
2023/11/30 00:39:57;;;;;;;8.37;6.40;;;;;;;-0.15;100.00;101242.25;4983513;28;20591;-71
2023/11/30 00:42:22;;;;;;;9.33;6.77;;;;;;;-0.88;100.00;101132.00;4983381;28;20181;-71
2023/11/30 00:44:48;;;;;;;9.70;6.83;;;;;;;-0.37;100.00;101224.63;4980576;28;20716;-71
2023/11/30 00:47:16;;;;;;;8.70;6.57;;;;;;;-1.03;100.00;101116.41;4978686;28;20206;-71
2023/11/30 00:49:41;;;;;;;10.27;7.70;;;;;;;-0.47;100.00;101206.03;4979997;28;20725;-69
2023/11/30 00:52:07;;;;;;;8.70;7.00;;;;;;;-0.50;100.00;101206.28;4979655;28;20441;-69
2023/11/30 00:54:32;;;;;;;9.17;7.00;;;;;;;-1.03;100.00;101095.34;4984147;28;20186;-69
2023/11/30 00:56:58;;;;;;;13.00;7.70;;;;;;;-0.77;100.00;101161.81;4982591;28;20209;-69
2023/11/30 00:59:23;;;;;;;11.13;8.60;;;;;;;-0.48;100.00;101229.88;4981026;28;20206;-71
2023/11/30 01:01:48;;;;;;;11.10;7.93;;;;;;;-0.85;100.00;101171.25;4978256;28;20182;-71
2023/11/30 01:04:14;;;;;;;9.47;7.43;;;;;;;-0.56;100.00;101211.19;4992991;23;20248;-68
2023/11/30 01:06:39;;;;;;;10.20;8.80;;;;;;;-0.37;100.00;101234.34;4983912;28;20210;-69
2023/11/30 01:09:05;;;;;;;12.40;8.00;;;;;;;-0.31;100.00;101260.22;4982592;28;20178;-69
2023/11/30 01:11:30;;;;;;;10.03;8.17;;;;;;;-0.39;100.00;101258.16;4981181;28;20265;-69
2023/11/30 01:13:56;;;;;;;12.47;7.53;;;;;;;-0.27;100.00;101272.19;4983621;28;20213;-68
2023/11/30 01:16:21;;;;;;;10.40;7.73;;;;;;;-0.68;100.00;101255.13;4979440;28;20190;-69
2023/11/30 01:18:46;;;;;;;9.53;8.00;;;;;;;-0.54;100.00;101273.34;4985814;28;20735;-68
2023/11/30 01:21:12;;;;;;;10.20;7.83;;;;;;;-0.84;100.00;101229.09;4983148;28;20197;-69
2023/11/30 01:23:37;;;;;;;10.93;8.33;;;;;;;-1.00;100.00;101194.31;4986603;28;20241;-69
2023/11/30 01:26:03;;;;;;;11.27;8.03;;;;;;;-0.52;100.00;101260.91;4983222;28;20192;-68
2023/11/30 01:28:29;;;;;;;10.50;8.17;;;;;;;-0.96;100.00;101219.47;4984066;28;20968;-69
2023/11/30 01:30:54;;;;;;;10.37;8.27;;;;;;;-1.26;100.00;101207.63;4984518;28;20197;-69
2023/11/30 01:33:20;;;;;;;10.33;8.90;;;;;;;-0.62;100.00;101254.66;4984510;28;20181;-68
2023/11/30 01:35:47;;;;;;;10.80;8.60;;;;;;;-1.00;100.00;101175.91;4988949;28;20201;-69
2023/11/30 01:38:13;;;;;;;11.73;8.70;;;;;;;-0.65;100.00;101273.31;4983264;28;20719;-69
2023/11/30 01:40:38;;;;;;;9.87;8.20;;;;;;;-0.65;100.00;101272.50;4988147;28;20508;-69
2023/11/30 01:43:07;;;;;;;11.77;8.67;;;;;;;-1.03;100.00;101210.34;4984145;28;20185;-69
2023/11/30 01:45:32;;;;;;;9.20;7.93;;;;;;;-0.84;100.00;101244.91;4982297;28;20193;-68
2023/11/30 01:47:59;;;;;;;10.70;8.30;;;;;;;-0.88;100.00;101234.69;4988609;28;20463;-69
2023/11/30 01:50:25;;;;;;;11.43;8.57;;;;;;;-1.07;100.00;101208.88;4983411;28;21226;-69
2023/11/30 01:52:50;;;;;;;9.77;7.83;;;;;;;-1.36;100.00;101175.03;4983883;28;20432;-69
2023/11/30 01:55:16;;;;;;;10.07;7.23;;;;;;;-1.08;100.00;101192.25;4981432;28;21152;-69
2023/11/30 01:57:42;;;;;;;9.60;7.70;;;;;;;-0.90;100.00;101266.41;4989510;28;20278;-69
2023/11/30 02:00:09;;;;;;;9.50;7.47;;;;;;;-1.42;100.00;101189.50;4985954;28;20487;-69
2023/11/30 02:02:36;;;;;;;11.33;7.80;;;;;;;-0.93;100.00;101262.22;4981580;28;20205;-69
2023/11/30 02:05:02;;;;;;;10.17;7.57;;;;;;;-1.23;100.00;101214.47;4987963;28;20526;-69
2023/11/30 02:07:27;;;;;;;9.80;7.97;;;;;;;-1.45;100.00;101159.94;4992912;28;20456;-69
2023/11/30 02:09:53;;;;;;;11.30;8.07;;;;;;;-1.05;100.00;101236.78;4982210;28;20198;-69
2023/11/30 02:12:18;;;;;;;10.60;8.57;;;;;;;-0.82;100.00;101247.41;4979516;28;20200;-68
2023/11/30 02:14:43;;;;;;;14.37;10.17;;;;;;;-1.74;100.00;101099.78;4983472;28;20186;-68
2023/11/30 02:17:09;;;;;;;24.20;13.10;;;;;;;-0.99;100.00;101198.63;4975440;28;20209;-69
2023/11/30 02:19:35;;;;;;;43.67;12.67;;;;;;;-0.73;100.00;101230.91;4980751;28;20221;-68
2023/11/30 02:22:00;;;;;;;33.10;13.87;;;;;;;-1.23;100.00;101172.34;4983385;28;20233;-69
2023/11/30 02:24:25;;;;;;;18.73;13.30;;;;;;;-0.57;100.00;101230.59;4978563;28;20193;-68
2023/11/30 02:26:51;;;;;;;23.90;14.27;;;;;;;-0.87;100.00;101208.22;4982835;28;20243;-69
2023/11/30 02:29:16;;;;;;;47.50;13.97;;;;;;;-1.07;100.00;101214.16;4980493;28;20194;-69
2023/11/30 02:31:43;;;;;;;53.20;12.50;;;;;;;-1.57;100.00;101116.97;4982128;28;20255;-68
2023/11/30 02:34:08;;;;;;;84.07;12.57;;;;;;;-1.23;100.00;101223.19;4979930;28;20229;-69
2023/11/30 02:36:34;;;;;;;46.60;12.40;;;;;;;-1.11;100.00;101196.91;4981635;28;20491;-69
2023/11/30 02:38:59;;;;;;;25.63;11.40;;;;;;;-1.58;100.00;101141.59;4982673;28;20202;-68
2023/11/30 02:41:25;;;;;;;22.73;11.67;;;;;;;-0.93;100.00;101219.22;4980183;28;20572;-69
2023/11/30 02:43:50;;;;;;;28.83;12.53;;;;;;;-1.60;100.00;101161.91;4983624;28;20189;-69
2023/11/30 02:46:15;;;;;;;64.13;11.67;;;;;;;-1.61;100.00;101192.63;4986841;28;20243;-68
2023/11/30 02:48:41;;;;;;;53.50;11.10;;;;;;;-1.72;100.00;101176.78;4985718;28;20204;-68
2023/11/30 02:51:06;;;;;;;27.00;9.77;;;;;;;-1.18;100.00;101260.56;4986073;28;20195;-69
2023/11/30 02:53:32;;;;;;;26.13;9.47;;;;;;;-1.18;100.00;101268.47;4986762;28;20591;-68
2023/11/30 02:56:00;;;;;;;44.47;10.73;;;;;;;-2.05;100.00;101143.25;4985188;28;20204;-68
2023/11/30 02:58:26;;;;;;;60.20;11.17;;;;;;;-1.09;100.00;101302.97;4978502;28;20267;-68
2023/11/30 03:00:51;;;;;;;33.10;10.17;;;;;;;-1.53;100.00;101236.81;4981804;28;20831;-68
2023/11/30 03:03:17;;;;;;;17.20;11.00;;;;;;;-0.80;100.00;101343.78;4983766;28;20297;-69
2023/11/30 03:05:42;;;;;;;17.70;9.37;;;;;;;-0.79;100.00;101347.28;4983204;28;20679;-69
2023/11/30 03:08:08;;;;;;;51.30;10.27;;;;;;;-1.50;100.00;101306.78;4979178;28;20288;-69
2023/11/30 03:10:33;;;;;;;40.60;9.80;;;;;;;-1.43;100.00;101289.59;4981894;28;20978;-69
2023/11/30 03:12:58;;;;;;;144.63;11.90;;;;;;;-1.57;100.00;101302.91;4983962;28;20197;-69
2023/11/30 03:15:24;;;;;;;23.00;10.20;;;;;;;-1.07;100.00;101375.63;4984706;28;22406;-68
2023/11/30 03:17:49;;;;;;;25.07;9.30;;;;;;;-1.05;100.00;101376.34;4985128;28;20225;-69
2023/11/30 03:20:15;;;;;;;29.43;10.10;;;;;;;-1.00;100.00;101384.75;4984580;28;20212;-69
2023/11/30 03:22:41;;;;;;;19.33;10.13;;;;;;;-1.11;100.00;101342.56;4982938;28;20201;-68
2023/11/30 03:25:07;;;;;;;19.33;8.90;;;;;;;-1.32;100.00;101337.03;4985866;28;20437;-68
2023/11/30 03:27:32;;;;;;;32.93;8.87;;;;;;;-0.93;100.00;101398.31;4986411;28;20201;-68
2023/11/30 03:29:58;;;;;;;22.70;8.27;;;;;;;-1.03;100.00;101382.34;4984032;28;20520;-69
2023/11/30 03:32:23;;;;;;;34.77;7.73;;;;;;;-1.18;100.00;101394.81;4982650;28;20185;-68
2023/11/30 03:34:49;;;;;;;13.10;8.60;;;;;;;-0.74;100.00;101418.91;4979864;28;20669;-68
2023/11/30 03:37:14;;;;;;;27.90;7.77;;;;;;;-0.90;100.00;101413.88;4986276;28;20224;-69
2023/11/30 03:39:40;;;;;;;46.80;8.83;;;;;;;-1.20;100.00;101403.75;4984814;28;20660;-69
2023/11/30 03:42:05;;;;;;;14.23;6.60;;;;;;;-1.20;100.00;101424.81;4987999;28;20194;-68
2023/11/30 03:44:30;;;;;;;23.77;7.40;;;;;;;-1.15;100.00;101418.28;4989808;28;20212;-69
2023/11/30 03:46:56;;;;;;;48.70;8.57;;;;;;;-1.44;100.00;101408.97;5004298;28;20201;-68
2023/11/30 03:49:21;;;;;;;86.33;8.90;;;;;;;-1.37;100.00;101442.63;4984352;28;20255;-68
2023/11/30 03:51:47;;;;;;;37.90;7.83;;;;;;;-1.67;100.00;101387.72;4979060;28;20209;-68
2023/11/30 03:54:12;;;;;;;17.17;8.13;;;;;;;-1.53;100.00;101397.31;4979645;28;20181;-68
2023/11/30 03:56:38;;;;;;;24.53;7.40;;;;;;;-1.30;100.00;101447.47;4978949;28;20217;-68
2023/11/30 03:59:03;;;;;;;109.67;9.30;;;;;;;-1.62;100.00;101467.19;4980813;28;20216;-68
2023/11/30 04:01:28;;;;;;;20.70;7.90;;;;;;;-1.74;100.00;101378.56;4980635;28;20193;-68
2023/11/30 04:03:54;;;;;;;61.80;8.07;;;;;;;-1.97;100.00;101431.88;4976622;28;20204;-68
2023/11/30 04:06:23;;;;;;;13.73;6.93;;;;;;;-1.14;100.00;101492.84;4978755;28;20190;-69
2023/11/30 04:08:50;;;;;;;44.13;8.93;;;;;;;-1.29;100.00;101504.44;4980271;28;20174;-68
2023/11/30 04:11:16;;;;;;;20.47;7.73;;;;;;;-1.07;100.00;101524.84;4975303;28;20498;-69
2023/11/30 04:13:44;;;;;;;17.00;7.00;;;;;;;-1.47;100.00;101449.50;4980698;28;20428;-68
2023/11/30 04:16:10;;;;;;;13.37;8.33;;;;;;;-1.08;100.00;101520.53;4979794;28;21014;-68
2023/11/30 04:18:36;;;;;;;19.17;7.57;;;;;;;-1.20;100.00;101495.91;4982006;28;20465;-68
2023/11/30 04:21:02;;;;;;;24.53;8.30;;;;;;;-1.37;100.00;101494.41;4994842;28;20678;-68
2023/11/30 04:23:27;;;;;;;30.13;8.13;;;;;;;-1.20;100.00;101520.44;4980314;28;20196;-68
2023/11/30 04:25:53;;;;;;;82.00;9.50;;;;;;;-1.71;100.00;101507.22;4980710;28;20186;-69
2023/11/30 04:28:18;;;;;;;58.53;8.77;;;;;;;-1.45;100.00;101538.84;4977694;28;20198;-68
2023/11/30 04:30:43;;;;;;;83.93;8.60;;;;;;;-1.64;100.00;101529.56;4982934;28;20243;-68
2023/11/30 04:33:09;;;;;;;64.53;9.13;;;;;;;-2.20;100.00;101441.31;4979867;28;20197;-68
2023/11/30 04:35:34;;;;;;;57.17;8.13;;;;;;;-1.70;100.00;101505.47;4980281;28;20186;-68
2023/11/30 04:38:00;;;;;;;18.30;6.80;;;;;;;-1.53;100.00;101534.13;4973095;28;20213;-68
2023/11/30 04:40:25;;;;;;;51.60;6.63;;;;;;;-1.85;100.00;101513.44;4979445;28;20189;-68
2023/11/30 04:42:51;;;;;;;94.63;8.30;;;;;;;-1.83;100.00;101514.16;4978788;28;20253;-68
2023/11/30 04:45:16;;;;;;;7.87;7.00;;;;;;;-1.11;100.00;101531.28;4981269;28;20217;-68
2023/11/30 04:47:43;;;;;;;28.00;7.70;;;;;;;-1.37;100.00;101518.09;4982771;28;20747;-68
2023/11/30 04:50:08;;;;;;;52.27;6.90;;;;;;;-1.83;100.00;101500.16;4980843;28;20439;-68
2023/11/30 04:52:34;;;;;;;19.57;7.20;;;;;;;-1.72;100.00;101494.19;4984073;28;20190;-68
2023/11/30 04:54:59;;;;;;;15.27;7.27;;;;;;;-1.72;100.00;101473.16;4983531;28;20184;-68
2023/11/30 04:57:24;;;;;;;94.83;7.90;;;;;;;-1.72;100.00;101552.91;4983848;28;20205;-68
2023/11/30 04:59:51;;;;;;;14.57;5.47;;;;;;;-1.69;100.00;101515.88;4984193;28;20245;-68
2023/11/30 05:02:16;;;;;;;9.90;5.60;;;;;;;-1.16;100.00;101539.47;4983596;28;20213;-68
2023/11/30 05:04:42;;;;;;;12.70;5.10;;;;;;;-2.08;100.00;101424.75;4984938;28;20479;-69
2023/11/30 05:07:07;;;;;;;26.07;5.33;;;;;;;-1.64;100.00;101481.38;4977720;28;20205;-68
2023/11/30 05:09:33;;;;;;;40.13;5.90;;;;;;;-1.41;100.00;101527.19;4978034;28;20185;-68
2023/11/30 05:11:59;;;;;;;30.80;5.77;;;;;;;-1.73;100.00;101538.06;4977225;28;20185;-68
2023/11/30 05:14:24;;;;;;;35.40;6.20;;;;;;;-1.85;100.00;101544.16;4993311;28;20213;-68
2023/11/30 05:16:50;;;;;;;51.80;6.60;;;;;;;-2.32;100.00;101463.97;4979876;28;20209;-68
2023/11/30 05:19:15;;;;;;;12.10;6.33;;;;;;;-1.35;100.00;101539.91;4978199;28;20658;-68
2023/11/30 05:21:41;;;;;;;10.50;5.57;;;;;;;-1.32;100.00;101528.34;4976727;28;20248;-69
2023/11/30 05:24:06;;;;;;;49.70;6.13;;;;;;;-1.43;100.00;101521.16;4994358;28;20181;-69
2023/11/30 05:26:32;;;;;;;14.20;4.90;;;;;;;-1.60;100.00;101530.19;4999855;28;20206;-69
2023/11/30 05:28:57;;;;;;;12.43;4.63;;;;;;;-1.75;100.00;101478.63;4990640;28;20186;-69
2023/11/30 05:31:23;;;;;;;54.23;5.50;;;;;;;-1.93;100.00;101499.94;4985124;28;20556;-69
2023/11/30 05:33:48;;;;;;;48.87;4.83;;;;;;;-2.06;100.00;101481.50;4985904;28;20657;-69
2023/11/30 05:36:13;;;;;;;9.27;3.97;;;;;;;-1.63;100.00;101507.56;4986406;28;20186;-69
2023/11/30 05:38:39;;;;;;;8.37;4.27;;;;;;;-1.30;100.00;101522.03;4989293;28;20205;-69
2023/11/30 05:41:05;;;;;;;14.33;4.30;;;;;;;-1.32;100.00;101528.34;4987142;28;20188;-69
2023/11/30 05:43:31;;;;;;;9.53;3.60;;;;;;;-1.82;100.00;101494.81;4987073;28;20189;-68
2023/11/30 05:45:57;;;;;;;21.63;3.70;;;;;;;-1.51;100.00;101502.41;4985041;28;20274;-69
2023/11/30 05:48:22;;;;;;;7.50;4.00;;;;;;;-1.82;100.00;101510.59;4987010;28;21050;-68
2023/11/30 05:50:48;;;;;;;10.00;3.40;;;;;;;-1.91;100.00;101498.06;4988928;28;20726;-69
2023/11/30 05:53:14;;;;;;;6.07;3.80;;;;;;;-2.15;100.00;101441.84;4990190;28;20178;-68
2023/11/30 05:55:39;;;;;;;8.20;3.17;;;;;;;-1.74;100.00;101512.69;4988657;28;20498;-69
2023/11/30 05:58:05;;;;;;;6.13;3.90;;;;;;;-1.93;100.00;101471.03;4988601;28;20689;-68
2023/11/30 06:00:30;;;;;;;27.73;4.17;;;;;;;-2.41;100.00;101507.44;4985577;28;20726;-69
2023/11/30 06:02:55;;;;;;;5.50;3.27;;;;;;;-1.85;100.00;101494.19;4987316;28;20758;-69
2023/11/30 06:05:21;;;;;;;13.30;2.50;;;;;;;-2.35;100.00;101474.69;4987719;28;20268;-69
2023/11/30 06:07:46;;;;;;;14.00;3.30;;;;;;;-2.29;100.00;101408.59;4989682;28;20208;-69
2023/11/30 06:10:13;;;;;;;11.30;3.40;;;;;;;-1.94;100.00;101474.59;4987451;28;20186;-69
2023/11/30 06:12:39;;;;;;;6.10;3.83;;;;;;;-2.37;100.00;101413.50;4989297;28;20661;-69
2023/11/30 06:15:05;;;;;;;5.47;3.00;;;;;;;-2.30;100.00;101441.91;4982950;28;20507;-69
2023/11/30 06:17:30;;;;;;;10.10;3.10;;;;;;;-2.51;100.00;101407.38;4985914;28;20847;-69
2023/11/30 06:19:56;;;;;;;10.50;3.70;;;;;;;-2.18;100.00;101471.78;4988216;28;20436;-69
2023/11/30 06:22:22;;;;;;;11.23;3.47;;;;;;;-2.87;100.00;101409.75;4987171;28;20186;-69
2023/11/30 06:24:47;;;;;;;18.03;3.33;;;;;;;-2.58;100.00;101478.78;4988848;28;20190;-69
2023/11/30 06:27:12;;;;;;;6.00;2.80;;;;;;;-2.77;100.00;101437.13;4988715;28;20202;-72
2023/11/30 06:29:38;;;;;;;24.93;3.43;;;;;;;-2.98;100.00;101463.78;4986448;28;20177;-69
2023/11/30 06:32:04;;;;;;;4.07;2.97;;;;;;;-3.19;100.00;101410.84;4984959;28;20186;-69
2023/11/30 06:34:30;;;;;;;3.90;2.70;;;;;;;-2.57;100.00;101457.69;4983702;28;20182;-69
2023/11/30 06:36:55;;;;;;;5.33;3.00;;;;;;;-3.06;100.00;101421.44;4984933;28;20487;-69
2023/11/30 06:39:21;;;;;;;28.30;3.77;;;;;;;-2.78;100.00;101473.03;4985939;28;20206;-69
2023/11/30 06:41:47;;;;;;;3.47;2.47;;;;;;;-2.32;100.00;101422.75;4982889;28;20182;-69
2023/11/30 06:44:13;;;;;;;26.40;2.80;;;;;;;-2.79;100.00;101423.25;4988258;28;20182;-68
2023/11/30 06:46:42;;;;;;;4.43;2.30;;;;;;;-2.58;100.00;101474.38;4987907;28;20452;-68
2023/11/30 06:49:10;;;;;;;4.13;2.67;;;;;;;-2.45;100.00;101477.06;4987146;28;20289;-68
2023/11/30 06:51:36;;;;;;;21.10;2.60;;;;;;;-2.96;100.00;101485.53;4987220;28;20964;-71
2023/11/30 06:54:02;;;;;;;25.53;2.77;;;;;;;-2.96;100.00;101464.53;4985513;28;20471;-68
2023/11/30 06:56:27;;;;;;;6.53;2.70;;;;;;;-2.58;100.00;101479.63;4985515;28;20432;-68
2023/11/30 06:58:53;;;;;;;6.73;2.33;;;;;;;-3.04;100.00;101443.19;4987646;28;20527;-68
2023/11/30 07:01:23;;;;;;;3.93;2.83;;;;;;;-2.47;100.00;101480.75;4985293;28;20189;-68
2023/11/30 07:03:49;;;;;;;3.30;2.30;;;;;;;-2.68;100.00;101470.66;5000124;28;20247;-68
2023/11/30 07:06:15;;;;;;;4.33;2.90;;;;;;;-2.92;100.00;101388.19;4988367;28;20441;-68
2023/11/30 07:08:40;;;;;;;12.90;2.43;;;;;;;-2.62;100.00;101451.06;4987532;28;20181;-71
2023/11/30 07:11:14;;;;;;;7.50;3.27;;;;;;;-3.10;100.00;101361.34;4987615;28;20661;-68
2023/11/30 07:13:40;;;;;;;11.47;3.10;;;;;;;-2.97;100.00;101451.50;4988027;28;20186;-68
2023/11/30 07:16:06;;;;;;;8.30;2.90;;;;;;;-2.68;100.00;101444.41;4985757;28;20999;-68
2023/11/30 07:18:32;;;;;;;5.03;3.50;;;;;;;-2.34;100.00;101464.09;4984904;28;20502;-68
2023/11/30 07:20:57;;;;;;;5.00;2.80;;;;;;;-2.41;100.00;101462.78;4988106;28;20487;-68
2023/11/30 07:23:23;;;;;;;5.20;3.30;;;;;;;-2.35;100.00;101464.19;4984586;28;20182;-68
2023/11/30 07:25:48;;;;;;;5.30;3.77;;;;;;;-2.21;100.00;101461.50;4985594;28;20228;-68
2023/11/30 07:28:14;;;;;;;41.70;4.83;;;;;;;-2.88;100.00;101453.56;4987869;28;20213;-68
2023/11/30 07:30:42;;;;;;;15.77;4.40;;;;;;;-3.61;100.00;101361.06;4985216;28;20186;-68
2023/11/30 07:33:10;;;;;;;7.27;4.73;;;;;;;-2.65;100.00;101467.00;4989879;28;20678;-68
2023/11/30 07:35:37;;;;;;;32.10;4.90;;;;;;;-3.34;100.00;101447.69;4995734;28;20451;-69
2023/11/30 07:38:03;;;;;;;6.63;5.17;;;;;;;-2.79;100.00;101418.00;4995415;28;20480;-69
2023/11/30 07:40:29;;;;;;;6.73;4.70;;;;;;;-2.41;100.00;101467.19;4996854;28;20468;-69
2023/11/30 07:42:56;;;;;;;7.90;5.90;;;;;;;-3.07;100.00;101308.66;4996167;28;20436;-69
2023/11/30 07:45:21;;;;;;;9.20;5.70;;;;;;;-3.27;100.00;101394.78;4998322;28;20280;-68
2023/11/30 07:47:47;;;;;;;7.50;5.47;;;;;;;-2.43;100.00;101462.06;4987283;28;20524;-68
2023/11/30 07:50:15;;;;;;;6.97;4.97;;;;;;;-2.73;100.00;101412.34;4985730;28;20197;-68
2023/11/30 07:52:42;;;;;;;6.13;4.80;;;;;;;-2.52;100.00;101431.97;4985414;28;20194;-68
2023/11/30 07:55:08;;;;;;;5.73;4.90;;;;;;;-2.80;100.00;101363.81;4984821;28;20452;-69
2023/11/30 07:57:33;;;;;;;6.20;4.70;;;;;;;-2.58;100.00;101405.25;4985212;28;20872;-68
2023/11/30 07:59:59;;;;;;;5.10;3.67;;;;;;;-2.29;100.00;101440.13;4985773;28;20194;-68
2023/11/30 08:02:24;;;;;;;4.83;3.97;;;;;;;-3.01;100.00;101377.38;4984069;28;20785;-68
2023/11/30 08:04:49;;;;;;;7.40;4.00;;;;;;;-3.57;100.00;101355.53;4985296;28;20212;-68
2023/11/30 08:07:15;;;;;;;27.30;4.20;;;;;;;-3.70;100.00;101308.25;4986890;28;20213;-68
2023/11/30 08:09:40;;;;;;;12.50;4.60;;;;;;;-2.64;100.00;101445.88;4986810;28;20173;-68
2023/11/30 08:12:06;;;;;;;7.13;4.60;;;;;;;-2.60;100.00;101447.38;4986891;28;20673;-68
2023/11/30 08:14:31;;;;;;;5.30;4.30;;;;;;;-3.21;100.00;101355.03;4983620;28;20197;-68
2023/11/30 08:16:58;;;;;;;14.23;4.30;;;;;;;-2.38;100.00;101445.97;4988842;28;20223;-68
2023/11/30 08:19:23;;;;;;;9.60;4.50;;;;;;;-2.29;100.00;101471.66;4990900;28;20406;-68
2023/11/30 08:21:49;;;;;;;4.60;3.60;;;;;;;-2.08;100.00;101469.41;4993453;28;20455;-68
2023/11/30 08:24:14;;;;;;;5.27;3.80;;;;;;;-2.31;100.00;101478.81;4988799;28;20200;-68
2023/11/30 08:26:39;;;;;;;11.23;3.87;;;;;;;-2.62;100.00;101464.19;4991584;28;20205;-68
2023/11/30 08:29:05;;;;;;;5.90;4.43;;;;;;;-2.41;100.00;101475.91;4991583;28;20998;-68
2023/11/30 08:31:30;;;;;;;4.10;3.30;;;;;;;-2.41;100.00;101451.44;4993674;28;20193;-68
2023/11/30 08:33:56;;;;;;;15.40;3.93;;;;;;;-3.47;100.00;101347.91;5003445;28;20215;-68
2023/11/30 08:36:22;;;;;;;8.20;4.23;;;;;;;-2.14;100.00;101475.06;5005696;28;20200;-68
2023/11/30 08:38:47;;;;;;;11.47;4.13;;;;;;;-3.68;100.00;101268.81;5093444;23;20218;-70
2023/11/30 08:41:13;;;;;;;6.43;3.80;;;;;;;-2.18;100.00;101478.84;4992582;28;20198;-70
2023/11/30 08:43:39;;;;;;;8.43;3.80;;;;;;;-3.10;100.00;101351.69;4989612;28;20186;-70
2023/11/30 08:46:04;;;;;;;14.13;4.37;;;;;;;-2.44;100.00;101477.91;4990805;28;20186;-70
2023/11/30 08:48:30;;;;;;;4.70;4.10;;;;;;;-2.10;100.00;101489.69;4973035;28;20214;-70
2023/11/30 08:50:56;;;;;;;5.83;4.20;;;;;;;-2.25;100.00;101502.06;4966802;28;20191;-70
2023/11/30 08:53:21;;;;;;;4.90;3.90;;;;;;;-1.92;100.00;101483.22;4972024;28;20229;-70
2023/11/30 08:55:47;;;;;;;19.60;4.90;;;;;;;-3.56;100.00;101338.84;4971600;28;20197;-70
2023/11/30 08:58:12;;;;;;;26.17;5.30;;;;;;;-2.40;100.00;101482.00;4968160;28;20218;-70
2023/11/30 09:00:42;;;;;;;16.80;4.67;;;;;;;-2.82;100.00;101392.78;4969470;28;20206;-70
2023/11/30 09:03:08;;;;;;;19.00;4.70;;;;;;;-2.38;100.00;101480.13;4968978;28;20453;-70
2023/11/30 09:05:34;;;;;;;6.03;5.00;;;;;;;-2.88;100.00;101345.06;4972096;28;20441;-70
2023/11/30 09:07:59;;;;;;;6.70;4.83;;;;;;;-2.20;100.00;101484.19;4973022;28;20976;-72
2023/11/30 09:10:25;;;;;;;4.37;3.97;;;;;;;-2.19;100.00;101491.16;4971133;28;20187;-73
2023/11/30 09:12:52;;;;;;;5.23;4.30;;;;;;;-2.29;100.00;101495.31;4971447;28;20183;-74
2023/11/30 09:15:18;;;;;;;9.60;4.20;;;;;;;-2.36;100.00;101509.78;4982884;28;20434;-74
2023/11/30 09:17:45;;;;;;;4.37;3.57;;;;;;;-2.64;100.00;101401.22;4972671;28;20453;-74
2023/11/30 09:20:11;;;;;;;4.00;3.50;;;;;;;-2.08;100.00;101500.97;4969506;28;20688;-74
2023/11/30 09:22:36;;;;;;;8.20;4.70;;;;;;;-2.28;100.00;101482.06;4971106;28;20476;-74
2023/11/30 09:25:03;;;;;;;4.77;4.27;;;;;;;-1.88;100.00;101457.56;4965642;28;20187;-74
2023/11/30 09:27:28;;;;;;;5.60;4.73;;;;;;;-1.68;100.00;101480.75;4970413;28;20202;-71
2023/11/30 09:29:54;;;;;;;5.87;4.13;;;;;;;-1.91;100.00;101489.31;4971621;28;20429;-72
2023/11/30 09:32:19;;;;;;;5.80;4.63;;;;;;;-2.03;100.00;101487.50;4967570;28;20672;-72
2023/11/30 09:34:45;;;;;;;5.30;4.10;;;;;;;-2.21;100.00;101431.75;4970948;28;20689;-71
2023/11/30 09:37:11;;;;;;;8.77;5.43;;;;;;;-1.94;100.00;101468.47;4969228;28;20297;-72
2023/11/30 09:39:38;;;;;;;6.93;4.20;;;;;;;-2.21;100.00;101411.56;4967578;28;20230;-72
2023/11/30 09:42:05;;;;;;;5.90;4.67;;;;;;;-1.89;100.00;101434.84;4969483;28;20975;-72
2023/11/30 09:44:32;;;;;;;12.87;4.00;;;;;;;-1.75;100.00;101453.16;4966465;28;20457;-72
2023/11/30 09:46:57;;;;;;;5.50;4.50;;;;;;;-1.84;100.00;101386.25;4967150;28;20457;-72
2023/11/30 09:49:23;;;;;;;16.40;4.23;;;;;;;-2.43;100.00;101349.09;4967998;28;20504;-72
2023/11/30 09:51:51;;;;;;;6.53;4.13;;;;;;;-1.63;100.00;101460.22;4967810;28;20356;-72
2023/11/30 09:54:17;;;;;;;4.77;4.27;;;;;;;-1.38;100.00;101462.00;4966678;28;20465;-72
2023/11/30 09:56:43;;;;;;;9.63;4.33;;;;;;;-1.68;100.00;101437.78;4969507;28;20445;-72
2023/11/30 09:59:09;;;;;;;5.63;3.80;;;;;;;-1.55;100.00;101466.75;4969433;28;20476;-72
2023/11/30 10:01:35;;;;;;;20.77;5.10;;;;;;;-1.51;100.00;101465.59;4967204;28;20221;-72
2023/11/30 10:04:17;;;;;;;6.43;4.07;;;;;;;-1.38;100.00;101451.47;4967634;28;20201;-72
2023/11/30 10:06:44;;;;;;;15.97;4.80;;;;;;;-1.47;100.00;101467.06;4969821;28;20437;-72
2023/11/30 10:09:13;;;;;;;11.70;5.20;;;;;;;-1.34;100.00;101467.91;4967296;28;20438;-72
2023/11/30 10:11:40;;;;;;;10.30;5.10;;;;;;;-1.24;100.00;101458.44;4969643;28;20946;-73
2023/11/30 10:14:06;;;;;;;8.87;5.27;;;;;;;-1.35;100.00;101452.22;4963894;28;20449;-73
2023/11/30 10:16:31;;;;;;;11.20;4.80;;;;;;;-1.38;100.00;101450.66;4967459;28;21835;-72
2023/11/30 10:18:57;;;;;;;14.07;5.57;;;;;;;-3.00;100.00;101221.56;4970676;28;20473;-72
2023/11/30 10:21:22;;;;;;;10.33;6.43;;;;;;;-1.28;100.00;101464.00;4964083;28;20575;-72
2023/11/30 10:23:48;;;;;;;13.60;8.23;;;;;;;-1.39;100.00;101467.38;4970933;28;20795;-73
2023/11/30 10:26:17;;;;;;;9.03;6.10;;;;;;;-1.54;100.00;101461.38;4968993;28;20574;-72
2023/11/30 10:28:43;;;;;;;8.53;5.83;;;;;;;-1.64;100.00;101365.63;4969984;28;20307;-72
2023/11/30 10:31:11;;;;;;;10.47;5.67;;;;;;;-1.18;100.00;101436.09;4966101;28;20483;-72
2023/11/30 10:33:38;;;;;;;12.53;4.80;;;;;;;-2.04;100.00;101347.34;4966890;28;20445;-72
2023/11/30 10:36:06;;;;;;;9.23;5.13;;;;;;;-1.42;100.00;101433.38;4966591;28;20466;-72
2023/11/30 10:38:33;;;;;;;7.70;5.60;;;;;;;-1.79;100.00;101362.28;4967257;28;20509;-72
2023/11/30 10:41:10;;;;;;;7.60;5.70;;;;;;;-1.09;100.00;101464.41;4965712;28;20454;-72
2023/11/30 10:43:37;;;;;;;7.60;5.80;;;;;;;-0.81;100.00;101473.81;4979568;28;20473;-72
2023/11/30 10:46:07;;;;;;;9.63;5.63;;;;;;;-0.75;100.00;101469.91;4967857;28;20504;-72
2023/11/30 10:48:33;;;;;;;9.33;5.60;;;;;;;-1.43;100.00;101381.69;4967155;28;20486;-72
2023/11/30 10:51:00;;;;;;;7.83;6.13;;;;;;;-1.12;100.00;101453.25;4967802;28;20548;-72
2023/11/30 10:53:31;;;;;;;7.90;5.83;;;;;;;-1.08;100.00;101470.50;4968322;28;20430;-72
2023/11/30 10:55:58;;;;;;;14.17;6.23;;;;;;;-1.18;100.00;101463.25;4966260;28;20446;-72
2023/11/30 10:58:27;;;;;;;7.63;5.83;;;;;;;-1.77;100.00;101320.91;4965092;28;20473;-72
2023/11/30 11:00:57;;;;;;;12.80;6.40;;;;;;;-0.84;100.00;101462.66;4965285;28;20453;-72
2023/11/30 11:03:22;;;;;;;9.10;6.30;;;;;;;-1.18;100.00;101465.06;4963902;28;20454;-72
2023/11/30 11:05:50;;;;;;;7.80;6.60;;;;;;;-1.28;100.00;101387.66;4969229;28;20843;-72